sensor_id;sensor_type;location;lat;lon;timestamp;P1;durP1;ratioP1;P2;durP2;ratioP2
76475;SDS011;65308;50.078;14.854;2022-12-07T00:00:12;4.60;;;2.40;;
76475;SDS011;65308;50.078;14.854;2022-12-07T00:02:40;5.20;;;2.90;;
76475;SDS011;65308;50.078;14.854;2022-12-07T00:05:07;7.22;;;3.20;;
76475;SDS011;65308;50.078;14.854;2022-12-07T00:07:34;7.53;;;3.03;;
76475;SDS011;65308;50.078;14.854;2022-12-07T00:10:00;8.98;;;3.40;;
76475;SDS011;65308;50.078;14.854;2022-12-07T00:12:28;7.75;;;3.33;;
76475;SDS011;65308;50.078;14.854;2022-12-07T00:14:55;6.45;;;2.85;;
76475;SDS011;65308;50.078;14.854;2022-12-07T00:17:22;5.97;;;3.03;;
76475;SDS011;65308;50.078;14.854;2022-12-07T00:19:48;6.30;;;2.88;;
76475;SDS011;65308;50.078;14.854;2022-12-07T00:22:15;6.53;;;3.15;;
76475;SDS011;65308;50.078;14.854;2022-12-07T00:24:42;4.80;;;2.60;;
76475;SDS011;65308;50.078;14.854;2022-12-07T00:27:09;5.10;;;2.72;;
76475;SDS011;65308;50.078;14.854;2022-12-07T00:29:37;4.35;;;2.22;;
76475;SDS011;65308;50.078;14.854;2022-12-07T00:32:04;5.32;;;2.50;;
76475;SDS011;65308;50.078;14.854;2022-12-07T00:34:30;6.03;;;2.78;;
76475;SDS011;65308;50.078;14.854;2022-12-07T00:36:57;5.18;;;2.17;;
76475;SDS011;65308;50.078;14.854;2022-12-07T00:39:23;4.63;;;2.30;;
76475;SDS011;65308;50.078;14.854;2022-12-07T00:41:50;7.10;;;2.88;;
76475;SDS011;65308;50.078;14.854;2022-12-07T00:44:17;5.72;;;2.55;;
76475;SDS011;65308;50.078;14.854;2022-12-07T00:46:45;6.28;;;2.40;;
76475;SDS011;65308;50.078;14.854;2022-12-07T00:49:12;5.40;;;2.60;;
76475;SDS011;65308;50.078;14.854;2022-12-07T00:51:39;7.50;;;2.55;;
76475;SDS011;65308;50.078;14.854;2022-12-07T00:54:06;5.20;;;2.40;;
76475;SDS011;65308;50.078;14.854;2022-12-07T00:56:32;5.03;;;2.20;;
76475;SDS011;65308;50.078;14.854;2022-12-07T00:59:01;4.32;;;2.28;;
76475;SDS011;65308;50.078;14.854;2022-12-07T01:01:30;3.95;;;1.98;;
76475;SDS011;65308;50.078;14.854;2022-12-07T01:04:00;4.70;;;2.20;;
76475;SDS011;65308;50.078;14.854;2022-12-07T01:06:27;3.80;;;2.25;;
76475;SDS011;65308;50.078;14.854;2022-12-07T01:08:54;4.13;;;2.17;;
76475;SDS011;65308;50.078;14.854;2022-12-07T01:11:22;5.25;;;2.15;;
76475;SDS011;65308;50.078;14.854;2022-12-07T01:13:51;6.18;;;2.45;;
76475;SDS011;65308;50.078;14.854;2022-12-07T01:16:19;4.07;;;2.25;;
76475;SDS011;65308;50.078;14.854;2022-12-07T01:18:47;3.90;;;1.92;;
76475;SDS011;65308;50.078;14.854;2022-12-07T01:21:17;4.30;;;2.25;;
76475;SDS011;65308;50.078;14.854;2022-12-07T01:23:45;4.03;;;2.13;;
76475;SDS011;65308;50.078;14.854;2022-12-07T01:26:14;3.92;;;2.35;;
76475;SDS011;65308;50.078;14.854;2022-12-07T01:28:42;4.38;;;2.13;;
76475;SDS011;65308;50.078;14.854;2022-12-07T01:31:10;5.18;;;2.50;;
76475;SDS011;65308;50.078;14.854;2022-12-07T01:33:40;5.40;;;2.35;;
76475;SDS011;65308;50.078;14.854;2022-12-07T01:36:08;4.93;;;2.50;;
76475;SDS011;65308;50.078;14.854;2022-12-07T01:38:42;4.55;;;2.45;;
76475;SDS011;65308;50.078;14.854;2022-12-07T01:41:09;4.15;;;2.42;;
76475;SDS011;65308;50.078;14.854;2022-12-07T01:43:36;5.13;;;2.50;;
76475;SDS011;65308;50.078;14.854;2022-12-07T01:46:23;4.38;;;2.38;;
76475;SDS011;65308;50.078;14.854;2022-12-07T01:48:50;5.00;;;2.47;;
76475;SDS011;65308;50.078;14.854;2022-12-07T01:51:16;5.53;;;2.80;;
76475;SDS011;65308;50.078;14.854;2022-12-07T01:53:45;4.68;;;2.28;;
76475;SDS011;65308;50.078;14.854;2022-12-07T01:56:13;3.97;;;2.42;;
76475;SDS011;65308;50.078;14.854;2022-12-07T01:58:42;6.00;;;2.65;;
76475;SDS011;65308;50.078;14.854;2022-12-07T02:01:09;5.20;;;2.92;;
76475;SDS011;65308;50.078;14.854;2022-12-07T02:03:37;4.82;;;2.55;;
76475;SDS011;65308;50.078;14.854;2022-12-07T02:06:06;6.47;;;2.80;;
76475;SDS011;65308;50.078;14.854;2022-12-07T02:08:34;6.50;;;3.05;;
76475;SDS011;65308;50.078;14.854;2022-12-07T02:11:02;4.97;;;3.13;;
76475;SDS011;65308;50.078;14.854;2022-12-07T02:13:30;5.38;;;2.55;;
76475;SDS011;65308;50.078;14.854;2022-12-07T02:16:02;4.90;;;2.47;;
76475;SDS011;65308;50.078;14.854;2022-12-07T02:18:42;4.35;;;2.70;;
76475;SDS011;65308;50.078;14.854;2022-12-07T02:21:16;5.90;;;2.53;;
76475;SDS011;65308;50.078;14.854;2022-12-07T02:29:53;5.47;;;3.10;;
76475;SDS011;65308;50.078;14.854;2022-12-07T02:32:26;4.75;;;2.63;;
76475;SDS011;65308;50.078;14.854;2022-12-07T02:35:00;5.00;;;2.90;;
76475;SDS011;65308;50.078;14.854;2022-12-07T02:37:33;4.80;;;2.90;;
76475;SDS011;65308;50.078;14.854;2022-12-07T02:40:07;6.75;;;3.10;;
76475;SDS011;65308;50.078;14.854;2022-12-07T02:42:40;5.50;;;3.03;;
76475;SDS011;65308;50.078;14.854;2022-12-07T02:45:14;6.45;;;3.70;;
76475;SDS011;65308;50.078;14.854;2022-12-07T02:47:44;5.90;;;3.00;;
76475;SDS011;65308;50.078;14.854;2022-12-07T02:50:14;4.82;;;3.05;;
76475;SDS011;65308;50.078;14.854;2022-12-07T02:52:44;5.93;;;3.40;;
76475;SDS011;65308;50.078;14.854;2022-12-07T02:55:11;5.15;;;3.30;;
76475;SDS011;65308;50.078;14.854;2022-12-07T02:57:42;5.35;;;3.25;;
76475;SDS011;65308;50.078;14.854;2022-12-07T03:00:19;5.10;;;2.70;;
76475;SDS011;65308;50.078;14.854;2022-12-07T03:02:49;6.72;;;3.20;;
76475;SDS011;65308;50.078;14.854;2022-12-07T03:05:26;5.53;;;2.70;;
76475;SDS011;65308;50.078;14.854;2022-12-07T03:08:00;5.50;;;3.30;;
76475;SDS011;65308;50.078;14.854;2022-12-07T03:10:33;5.47;;;3.08;;
76475;SDS011;65308;50.078;14.854;2022-12-07T03:13:05;5.55;;;3.42;;
76475;SDS011;65308;50.078;14.854;2022-12-07T03:15:40;5.85;;;3.25;;
76475;SDS011;65308;50.078;14.854;2022-12-07T03:18:13;6.20;;;3.33;;
76475;SDS011;65308;50.078;14.854;2022-12-07T03:20:44;6.60;;;3.60;;
76475;SDS011;65308;50.078;14.854;2022-12-07T03:23:14;7.25;;;3.65;;
76475;SDS011;65308;50.078;14.854;2022-12-07T03:25:46;5.30;;;3.20;;
76475;SDS011;65308;50.078;14.854;2022-12-07T03:28:18;5.40;;;3.20;;
76475;SDS011;65308;50.078;14.854;2022-12-07T03:30:51;6.75;;;3.70;;
76475;SDS011;65308;50.078;14.854;2022-12-07T03:33:22;7.32;;;3.78;;
76475;SDS011;65308;50.078;14.854;2022-12-07T03:35:54;6.57;;;3.75;;
76475;SDS011;65308;50.078;14.854;2022-12-07T03:38:27;6.70;;;3.38;;
76475;SDS011;65308;50.078;14.854;2022-12-07T03:41:00;6.70;;;4.00;;
76475;SDS011;65308;50.078;14.854;2022-12-07T03:43:30;5.28;;;3.22;;
76475;SDS011;65308;50.078;14.854;2022-12-07T03:46:00;5.95;;;3.35;;
76475;SDS011;65308;50.078;14.854;2022-12-07T03:48:35;5.80;;;3.67;;
76475;SDS011;65308;50.078;14.854;2022-12-07T03:51:07;6.57;;;3.90;;
76475;SDS011;65308;50.078;14.854;2022-12-07T03:53:39;6.35;;;3.90;;
76475;SDS011;65308;50.078;14.854;2022-12-07T03:56:10;5.53;;;3.58;;
76475;SDS011;65308;50.078;14.854;2022-12-07T03:58:38;6.13;;;3.30;;
76475;SDS011;65308;50.078;14.854;2022-12-07T04:01:08;6.72;;;3.83;;
76475;SDS011;65308;50.078;14.854;2022-12-07T04:03:35;5.68;;;3.55;;
76475;SDS011;65308;50.078;14.854;2022-12-07T04:06:01;5.10;;;3.33;;
76475;SDS011;65308;50.078;14.854;2022-12-07T04:08:28;6.88;;;3.65;;
76475;SDS011;65308;50.078;14.854;2022-12-07T04:10:55;7.20;;;3.20;;
76475;SDS011;65308;50.078;14.854;2022-12-07T04:13:21;5.70;;;3.40;;
76475;SDS011;65308;50.078;14.854;2022-12-07T04:16:17;5.15;;;3.30;;
76475;SDS011;65308;50.078;14.854;2022-12-07T04:18:43;7.05;;;3.33;;
76475;SDS011;65308;50.078;14.854;2022-12-07T04:21:10;4.90;;;3.20;;
76475;SDS011;65308;50.078;14.854;2022-12-07T04:23:37;5.97;;;3.53;;
76475;SDS011;65308;50.078;14.854;2022-12-07T04:26:04;6.40;;;3.50;;
76475;SDS011;65308;50.078;14.854;2022-12-07T04:28:30;6.93;;;3.90;;
76475;SDS011;65308;50.078;14.854;2022-12-07T04:30:57;7.05;;;4.28;;
76475;SDS011;65308;50.078;14.854;2022-12-07T04:33:25;6.55;;;3.88;;
76475;SDS011;65308;50.078;14.854;2022-12-07T04:38:18;6.53;;;3.90;;
76475;SDS011;65308;50.078;14.854;2022-12-07T04:40:45;5.88;;;3.40;;
76475;SDS011;65308;50.078;14.854;2022-12-07T04:43:11;5.88;;;3.72;;
76475;SDS011;65308;50.078;14.854;2022-12-07T04:45:38;4.78;;;2.92;;
76475;SDS011;65308;50.078;14.854;2022-12-07T04:48:05;5.90;;;3.85;;
76475;SDS011;65308;50.078;14.854;2022-12-07T04:50:33;6.03;;;3.75;;
76475;SDS011;65308;50.078;14.854;2022-12-07T04:53:03;6.68;;;3.40;;
76475;SDS011;65308;50.078;14.854;2022-12-07T04:55:29;5.70;;;3.22;;
76475;SDS011;65308;50.078;14.854;2022-12-07T04:57:57;5.53;;;3.88;;
76475;SDS011;65308;50.078;14.854;2022-12-07T05:00:25;7.85;;;3.92;;
76475;SDS011;65308;50.078;14.854;2022-12-07T05:02:51;5.57;;;3.58;;
76475;SDS011;65308;50.078;14.854;2022-12-07T05:05:18;6.32;;;3.70;;
76475;SDS011;65308;50.078;14.854;2022-12-07T05:07:46;5.90;;;3.70;;
76475;SDS011;65308;50.078;14.854;2022-12-07T05:10:12;5.82;;;3.53;;
76475;SDS011;65308;50.078;14.854;2022-12-07T05:12:39;6.50;;;3.90;;
76475;SDS011;65308;50.078;14.854;2022-12-07T05:15:06;7.88;;;4.10;;
76475;SDS011;65308;50.078;14.854;2022-12-07T05:17:33;6.30;;;4.00;;
76475;SDS011;65308;50.078;14.854;2022-12-07T05:19:59;7.07;;;4.10;;
76475;SDS011;65308;50.078;14.854;2022-12-07T05:22:26;6.53;;;4.22;;
76475;SDS011;65308;50.078;14.854;2022-12-07T05:24:54;7.78;;;4.60;;
76475;SDS011;65308;50.078;14.854;2022-12-07T05:27:21;6.65;;;4.40;;
76475;SDS011;65308;50.078;14.854;2022-12-07T05:29:49;6.70;;;4.30;;
76475;SDS011;65308;50.078;14.854;2022-12-07T05:32:16;9.98;;;4.05;;
76475;SDS011;65308;50.078;14.854;2022-12-07T05:34:43;6.30;;;4.07;;
76475;SDS011;65308;50.078;14.854;2022-12-07T05:37:10;6.97;;;4.35;;
76475;SDS011;65308;50.078;14.854;2022-12-07T05:39:36;7.20;;;4.40;;
76475;SDS011;65308;50.078;14.854;2022-12-07T05:42:07;6.55;;;4.07;;
76475;SDS011;65308;50.078;14.854;2022-12-07T05:44:38;7.75;;;4.90;;
76475;SDS011;65308;50.078;14.854;2022-12-07T05:47:05;6.90;;;4.43;;
76475;SDS011;65308;50.078;14.854;2022-12-07T05:49:31;8.18;;;5.07;;
76475;SDS011;65308;50.078;14.854;2022-12-07T05:51:58;9.05;;;4.90;;
76475;SDS011;65308;50.078;14.854;2022-12-07T05:54:25;10.05;;;5.93;;
76475;SDS011;65308;50.078;14.854;2022-12-07T05:56:51;9.23;;;5.50;;
76475;SDS011;65308;50.078;14.854;2022-12-07T05:59:20;10.00;;;5.88;;
76475;SDS011;65308;50.078;14.854;2022-12-07T06:01:48;8.85;;;4.90;;
76475;SDS011;65308;50.078;14.854;2022-12-07T06:04:15;7.57;;;4.90;;
76475;SDS011;65308;50.078;14.854;2022-12-07T06:06:42;9.20;;;5.40;;
76475;SDS011;65308;50.078;14.854;2022-12-07T06:09:09;9.73;;;5.63;;
76475;SDS011;65308;50.078;14.854;2022-12-07T06:11:36;10.38;;;5.80;;
76475;SDS011;65308;50.078;14.854;2022-12-07T06:14:30;10.05;;;5.55;;
76475;SDS011;65308;50.078;14.854;2022-12-07T06:16:57;9.68;;;5.40;;
76475;SDS011;65308;50.078;14.854;2022-12-07T06:19:24;7.32;;;4.40;;
76475;SDS011;65308;50.078;14.854;2022-12-07T06:21:51;9.07;;;5.28;;
76475;SDS011;65308;50.078;14.854;2022-12-07T06:24:18;9.95;;;5.95;;
76475;SDS011;65308;50.078;14.854;2022-12-07T06:26:45;9.95;;;5.55;;
76475;SDS011;65308;50.078;14.854;2022-12-07T06:29:12;9.55;;;5.40;;
76475;SDS011;65308;50.078;14.854;2022-12-07T06:31:41;9.90;;;5.50;;
76475;SDS011;65308;50.078;14.854;2022-12-07T06:34:09;10.57;;;5.60;;
76475;SDS011;65308;50.078;14.854;2022-12-07T06:36:37;8.88;;;5.32;;
76475;SDS011;65308;50.078;14.854;2022-12-07T06:39:04;8.93;;;5.43;;
76475;SDS011;65308;50.078;14.854;2022-12-07T06:41:32;9.52;;;5.80;;
76475;SDS011;65308;50.078;14.854;2022-12-07T06:43:59;9.07;;;5.30;;
76475;SDS011;65308;50.078;14.854;2022-12-07T06:46:26;10.80;;;5.65;;
76475;SDS011;65308;50.078;14.854;2022-12-07T06:48:54;9.38;;;5.28;;
76475;SDS011;65308;50.078;14.854;2022-12-07T06:51:21;9.90;;;4.82;;
76475;SDS011;65308;50.078;14.854;2022-12-07T06:53:48;8.30;;;5.03;;
76475;SDS011;65308;50.078;14.854;2022-12-07T06:56:15;10.23;;;5.28;;
76475;SDS011;65308;50.078;14.854;2022-12-07T06:58:50;8.38;;;5.43;;
76475;SDS011;65308;50.078;14.854;2022-12-07T07:01:19;8.90;;;5.07;;
76475;SDS011;65308;50.078;14.854;2022-12-07T07:03:47;8.13;;;4.95;;
76475;SDS011;65308;50.078;14.854;2022-12-07T07:06:21;7.63;;;5.07;;
76475;SDS011;65308;50.078;14.854;2022-12-07T07:11:19;8.10;;;4.55;;
76475;SDS011;65308;50.078;14.854;2022-12-07T07:13:49;7.53;;;4.70;;
76475;SDS011;65308;50.078;14.854;2022-12-07T07:16:15;8.43;;;5.00;;
76475;SDS011;65308;50.078;14.854;2022-12-07T07:18:49;7.50;;;4.50;;
76475;SDS011;65308;50.078;14.854;2022-12-07T07:21:22;7.20;;;4.65;;
76475;SDS011;65308;50.078;14.854;2022-12-07T07:23:52;7.60;;;4.55;;
76475;SDS011;65308;50.078;14.854;2022-12-07T07:26:19;6.57;;;4.35;;
76475;SDS011;65308;50.078;14.854;2022-12-07T07:28:53;6.85;;;4.43;;
76475;SDS011;65308;50.078;14.854;2022-12-07T07:31:36;7.50;;;4.45;;
76475;SDS011;65308;50.078;14.854;2022-12-07T07:34:08;7.18;;;4.20;;
76475;SDS011;65308;50.078;14.854;2022-12-07T07:39:13;8.75;;;5.32;;
76475;SDS011;65308;50.078;14.854;2022-12-07T07:41:46;8.38;;;4.95;;
76475;SDS011;65308;50.078;14.854;2022-12-07T07:44:19;7.03;;;4.72;;
76475;SDS011;65308;50.078;14.854;2022-12-07T07:46:45;6.75;;;4.03;;
76475;SDS011;65308;50.078;14.854;2022-12-07T07:49:24;7.35;;;4.57;;
76475;SDS011;65308;50.078;14.854;2022-12-07T07:51:51;7.15;;;4.60;;
76475;SDS011;65308;50.078;14.854;2022-12-07T07:56:56;8.23;;;4.63;;
76475;SDS011;65308;50.078;14.854;2022-12-07T07:59:29;7.40;;;4.72;;
76475;SDS011;65308;50.078;14.854;2022-12-07T08:02:01;6.72;;;4.35;;
76475;SDS011;65308;50.078;14.854;2022-12-07T08:04:28;7.28;;;4.60;;
76475;SDS011;65308;50.078;14.854;2022-12-07T08:09:41;5.93;;;3.80;;
76475;SDS011;65308;50.078;14.854;2022-12-07T08:12:23;6.32;;;3.58;;
76475;SDS011;65308;50.078;14.854;2022-12-07T08:14:50;5.68;;;3.55;;
76475;SDS011;65308;50.078;14.854;2022-12-07T08:17:19;5.57;;;3.50;;
76475;SDS011;65308;50.078;14.854;2022-12-07T08:19:49;6.72;;;3.80;;
76475;SDS011;65308;50.078;14.854;2022-12-07T08:22:18;5.50;;;3.72;;
76475;SDS011;65308;50.078;14.854;2022-12-07T08:24:59;8.55;;;3.70;;
76475;SDS011;65308;50.078;14.854;2022-12-07T08:27:34;5.13;;;3.50;;
76475;SDS011;65308;50.078;14.854;2022-12-07T08:30:07;5.50;;;3.40;;
76475;SDS011;65308;50.078;14.854;2022-12-07T08:32:40;6.05;;;3.53;;
76475;SDS011;65308;50.078;14.854;2022-12-07T08:35:13;6.65;;;3.92;;
76475;SDS011;65308;50.078;14.854;2022-12-07T08:37:47;6.13;;;4.10;;
76475;SDS011;65308;50.078;14.854;2022-12-07T08:43:04;5.32;;;3.67;;
76475;SDS011;65308;50.078;14.854;2022-12-07T08:45:46;6.93;;;4.13;;
76475;SDS011;65308;50.078;14.854;2022-12-07T08:48:41;6.47;;;4.22;;
76475;SDS011;65308;50.078;14.854;2022-12-07T08:51:23;8.10;;;4.00;;
76475;SDS011;65308;50.078;14.854;2022-12-07T08:53:56;6.28;;;3.80;;
76475;SDS011;65308;50.078;14.854;2022-12-07T08:56:40;6.22;;;3.88;;
76475;SDS011;65308;50.078;14.854;2022-12-07T09:07:03;6.22;;;4.13;;
76475;SDS011;65308;50.078;14.854;2022-12-07T09:09:34;6.78;;;4.15;;
76475;SDS011;65308;50.078;14.854;2022-12-07T09:12:00;8.55;;;4.90;;
76475;SDS011;65308;50.078;14.854;2022-12-07T09:14:29;7.47;;;4.95;;
76475;SDS011;65308;50.078;14.854;2022-12-07T09:17:04;6.75;;;4.30;;
76475;SDS011;65308;50.078;14.854;2022-12-07T09:19:40;7.53;;;4.68;;
76475;SDS011;65308;50.078;14.854;2022-12-07T09:22:13;8.52;;;4.38;;
76475;SDS011;65308;50.078;14.854;2022-12-07T09:24:41;8.20;;;4.95;;
76475;SDS011;65308;50.078;14.854;2022-12-07T09:27:13;7.25;;;4.32;;
76475;SDS011;65308;50.078;14.854;2022-12-07T09:29:43;7.65;;;4.88;;
76475;SDS011;65308;50.078;14.854;2022-12-07T09:32:12;8.63;;;5.10;;
76475;SDS011;65308;50.078;14.854;2022-12-07T09:34:49;8.25;;;4.95;;
76475;SDS011;65308;50.078;14.854;2022-12-07T09:37:21;8.45;;;4.70;;
76475;SDS011;65308;50.078;14.854;2022-12-07T09:39:48;8.63;;;5.10;;
76475;SDS011;65308;50.078;14.854;2022-12-07T09:42:18;10.90;;;5.10;;
76475;SDS011;65308;50.078;14.854;2022-12-07T09:44:54;8.13;;;4.88;;
76475;SDS011;65308;50.078;14.854;2022-12-07T09:47:28;9.10;;;5.18;;
76475;SDS011;65308;50.078;14.854;2022-12-07T09:50:00;7.22;;;4.63;;
76475;SDS011;65308;50.078;14.854;2022-12-07T09:52:31;8.90;;;5.15;;
76475;SDS011;65308;50.078;14.854;2022-12-07T09:54:58;7.97;;;4.65;;
76475;SDS011;65308;50.078;14.854;2022-12-07T09:57:27;8.40;;;4.68;;
76475;SDS011;65308;50.078;14.854;2022-12-07T09:59:55;9.05;;;5.20;;
76475;SDS011;65308;50.078;14.854;2022-12-07T10:04:53;9.18;;;5.22;;
76475;SDS011;65308;50.078;14.854;2022-12-07T10:07:21;7.93;;;4.43;;
76475;SDS011;65308;50.078;14.854;2022-12-07T10:09:48;8.18;;;5.15;;
76475;SDS011;65308;50.078;14.854;2022-12-07T10:12:17;8.38;;;4.90;;
76475;SDS011;65308;50.078;14.854;2022-12-07T10:14:53;7.60;;;4.63;;
76475;SDS011;65308;50.078;14.854;2022-12-07T10:17:29;9.40;;;5.22;;
76475;SDS011;65308;50.078;14.854;2022-12-07T10:20:13;8.90;;;5.43;;
76475;SDS011;65308;50.078;14.854;2022-12-07T10:22:54;8.38;;;5.10;;
76475;SDS011;65308;50.078;14.854;2022-12-07T10:25:27;8.65;;;4.97;;
76475;SDS011;65308;50.078;14.854;2022-12-07T10:27:58;8.88;;;5.13;;
76475;SDS011;65308;50.078;14.854;2022-12-07T10:30:27;8.30;;;5.00;;
76475;SDS011;65308;50.078;14.854;2022-12-07T10:32:54;8.85;;;5.22;;
76475;SDS011;65308;50.078;14.854;2022-12-07T10:35:23;9.80;;;5.18;;
76475;SDS011;65308;50.078;14.854;2022-12-07T10:37:51;9.02;;;5.10;;
76475;SDS011;65308;50.078;14.854;2022-12-07T10:40:29;8.07;;;4.88;;
76475;SDS011;65308;50.078;14.854;2022-12-07T10:43:15;8.38;;;5.07;;
76475;SDS011;65308;50.078;14.854;2022-12-07T10:45:54;8.55;;;5.00;;
76475;SDS011;65308;50.078;14.854;2022-12-07T10:48:33;7.80;;;5.05;;
76475;SDS011;65308;50.078;14.854;2022-12-07T10:51:09;9.70;;;5.32;;
76475;SDS011;65308;50.078;14.854;2022-12-07T10:53:47;9.00;;;5.20;;
76475;SDS011;65308;50.078;14.854;2022-12-07T10:56:28;8.63;;;5.10;;
76475;SDS011;65308;50.078;14.854;2022-12-07T10:59:18;8.50;;;5.60;;
76475;SDS011;65308;50.078;14.854;2022-12-07T11:02:02;7.57;;;4.55;;
76475;SDS011;65308;50.078;14.854;2022-12-07T11:04:49;9.05;;;5.03;;
76475;SDS011;65308;50.078;14.854;2022-12-07T11:07:27;7.93;;;4.65;;
76475;SDS011;65308;50.078;14.854;2022-12-07T11:10:07;9.00;;;5.07;;
76475;SDS011;65308;50.078;14.854;2022-12-07T11:12:43;8.45;;;4.97;;
76475;SDS011;65308;50.078;14.854;2022-12-07T11:15:21;7.47;;;4.97;;
76475;SDS011;65308;50.078;14.854;2022-12-07T11:17:53;8.70;;;5.38;;
76475;SDS011;65308;50.078;14.854;2022-12-07T11:20:34;7.60;;;4.68;;
76475;SDS011;65308;50.078;14.854;2022-12-07T11:23:09;8.68;;;4.95;;
76475;SDS011;65308;50.078;14.854;2022-12-07T11:25:43;9.25;;;5.50;;
76475;SDS011;65308;50.078;14.854;2022-12-07T11:28:24;8.10;;;4.78;;
76475;SDS011;65308;50.078;14.854;2022-12-07T11:31:09;7.65;;;5.07;;
76475;SDS011;65308;50.078;14.854;2022-12-07T11:33:45;7.70;;;4.75;;
76475;SDS011;65308;50.078;14.854;2022-12-07T11:36:21;7.63;;;4.57;;
76475;SDS011;65308;50.078;14.854;2022-12-07T11:39:00;8.73;;;4.80;;
76475;SDS011;65308;50.078;14.854;2022-12-07T11:41:29;8.43;;;4.97;;
76475;SDS011;65308;50.078;14.854;2022-12-07T11:44:04;7.20;;;4.28;;
76475;SDS011;65308;50.078;14.854;2022-12-07T11:46:38;6.70;;;4.45;;
76475;SDS011;65308;50.078;14.854;2022-12-07T11:49:14;6.55;;;4.50;;
76475;SDS011;65308;50.078;14.854;2022-12-07T11:51:47;7.65;;;4.60;;
76475;SDS011;65308;50.078;14.854;2022-12-07T11:54:18;6.90;;;4.72;;
76475;SDS011;65308;50.078;14.854;2022-12-07T11:56:50;6.97;;;4.40;;
76475;SDS011;65308;50.078;14.854;2022-12-07T11:59:22;7.10;;;4.20;;
76475;SDS011;65308;50.078;14.854;2022-12-07T12:01:55;7.63;;;4.22;;
76475;SDS011;65308;50.078;14.854;2022-12-07T12:04:32;7.90;;;4.63;;
76475;SDS011;65308;50.078;14.854;2022-12-07T12:07:06;7.57;;;4.57;;
76475;SDS011;65308;50.078;14.854;2022-12-07T12:09:34;8.32;;;4.82;;
76475;SDS011;65308;50.078;14.854;2022-12-07T12:12:22;8.45;;;4.80;;
76475;SDS011;65308;50.078;14.854;2022-12-07T12:15:06;7.35;;;4.40;;
76475;SDS011;65308;50.078;14.854;2022-12-07T12:20:23;7.65;;;4.47;;
76475;SDS011;65308;50.078;14.854;2022-12-07T12:22:58;7.43;;;4.30;;
76475;SDS011;65308;50.078;14.854;2022-12-07T12:25:35;7.22;;;4.53;;
76475;SDS011;65308;50.078;14.854;2022-12-07T12:28:17;8.02;;;4.68;;
76475;SDS011;65308;50.078;14.854;2022-12-07T12:31:08;8.60;;;4.88;;
76475;SDS011;65308;50.078;14.854;2022-12-07T12:33:42;6.75;;;3.80;;
76475;SDS011;65308;50.078;14.854;2022-12-07T12:36:17;7.32;;;4.63;;
76475;SDS011;65308;50.078;14.854;2022-12-07T12:38:48;6.82;;;4.20;;
76475;SDS011;65308;50.078;14.854;2022-12-07T12:47:42;7.32;;;4.07;;
76475;SDS011;65308;50.078;14.854;2022-12-07T12:50:19;7.75;;;4.60;;
76475;SDS011;65308;50.078;14.854;2022-12-07T12:52:49;7.28;;;4.70;;
76475;SDS011;65308;50.078;14.854;2022-12-07T12:55:29;10.23;;;4.40;;
76475;SDS011;65308;50.078;14.854;2022-12-07T13:01:37;7.70;;;4.50;;
76475;SDS011;65308;50.078;14.854;2022-12-07T13:06:53;7.40;;;4.30;;
76475;SDS011;65308;50.078;14.854;2022-12-07T13:09:21;6.80;;;4.03;;
76475;SDS011;65308;50.078;14.854;2022-12-07T13:11:58;7.70;;;4.28;;
76475;SDS011;65308;50.078;14.854;2022-12-07T13:23:13;6.50;;;4.20;;
76475;SDS011;65308;50.078;14.854;2022-12-07T13:25:48;6.35;;;4.10;;
76475;SDS011;65308;50.078;14.854;2022-12-07T13:28:18;7.35;;;4.25;;
76475;SDS011;65308;50.078;14.854;2022-12-07T13:33:17;7.95;;;4.53;;
76475;SDS011;65308;50.078;14.854;2022-12-07T13:35:46;7.43;;;4.32;;
76475;SDS011;65308;50.078;14.854;2022-12-07T13:38:19;7.53;;;4.00;;
76475;SDS011;65308;50.078;14.854;2022-12-07T13:41:03;8.23;;;4.25;;
76475;SDS011;65308;50.078;14.854;2022-12-07T13:43:42;7.63;;;4.50;;
76475;SDS011;65308;50.078;14.854;2022-12-07T13:46:17;22.02;;;10.57;;
76475;SDS011;65308;50.078;14.854;2022-12-07T13:48:49;42.60;;;23.55;;
76475;SDS011;65308;50.078;14.854;2022-12-07T13:51:19;21.08;;;12.15;;
76475;SDS011;65308;50.078;14.854;2022-12-07T13:53:49;16.48;;;10.68;;
76475;SDS011;65308;50.078;14.854;2022-12-07T13:56:16;11.75;;;7.20;;
76475;SDS011;65308;50.078;14.854;2022-12-07T13:58:44;20.15;;;12.07;;
76475;SDS011;65308;50.078;14.854;2022-12-07T14:01:11;17.58;;;11.77;;
76475;SDS011;65308;50.078;14.854;2022-12-07T14:03:38;7.80;;;5.07;;
76475;SDS011;65308;50.078;14.854;2022-12-07T14:08:45;10.82;;;6.70;;
76475;SDS011;65308;50.078;14.854;2022-12-07T14:11:13;11.52;;;7.47;;
76475;SDS011;65308;50.078;14.854;2022-12-07T14:13:51;13.40;;;9.63;;
76475;SDS011;65308;50.078;14.854;2022-12-07T14:16:25;11.77;;;8.15;;
76475;SDS011;65308;50.078;14.854;2022-12-07T14:18:54;14.70;;;8.23;;
76475;SDS011;65308;50.078;14.854;2022-12-07T14:21:23;13.95;;;8.52;;
76475;SDS011;65308;50.078;14.854;2022-12-07T14:39:02;10.07;;;5.55;;
76475;SDS011;65308;50.078;14.854;2022-12-07T14:41:35;23.20;;;12.10;;
76475;SDS011;65308;50.078;14.854;2022-12-07T14:44:17;11.80;;;6.70;;
76475;SDS011;65308;50.078;14.854;2022-12-07T14:49:11;11.35;;;6.03;;
76475;SDS011;65308;50.078;14.854;2022-12-07T15:18:37;9.15;;;5.05;;
76475;SDS011;65308;50.078;14.854;2022-12-07T15:21:13;8.57;;;4.68;;
76475;SDS011;65308;50.078;14.854;2022-12-07T15:23:42;7.57;;;4.20;;
76475;SDS011;65308;50.078;14.854;2022-12-07T15:26:12;8.68;;;4.78;;
76475;SDS011;65308;50.078;14.854;2022-12-07T15:28:40;9.57;;;5.55;;
76475;SDS011;65308;50.078;14.854;2022-12-07T15:31:10;8.98;;;5.38;;
76475;SDS011;65308;50.078;14.854;2022-12-07T15:33:40;10.18;;;7.07;;
76475;SDS011;65308;50.078;14.854;2022-12-07T15:36:07;9.05;;;5.57;;
76475;SDS011;65308;50.078;14.854;2022-12-07T15:38:34;10.55;;;6.68;;
76475;SDS011;65308;50.078;14.854;2022-12-07T15:41:05;9.80;;;6.55;;
76475;SDS011;65308;50.078;14.854;2022-12-07T15:43:35;9.70;;;5.97;;
76475;SDS011;65308;50.078;14.854;2022-12-07T15:46:19;9.90;;;5.43;;
76475;SDS011;65308;50.078;14.854;2022-12-07T15:48:48;10.27;;;5.60;;
76475;SDS011;65308;50.078;14.854;2022-12-07T15:51:15;11.32;;;6.50;;
76475;SDS011;65308;50.078;14.854;2022-12-07T15:53:41;10.20;;;5.90;;
76475;SDS011;65308;50.078;14.854;2022-12-07T15:56:08;10.65;;;6.40;;
76475;SDS011;65308;50.078;14.854;2022-12-07T15:58:36;10.27;;;6.13;;
76475;SDS011;65308;50.078;14.854;2022-12-07T16:01:11;12.32;;;5.18;;
76475;SDS011;65308;50.078;14.854;2022-12-07T16:03:39;10.05;;;5.65;;
76475;SDS011;65308;50.078;14.854;2022-12-07T16:06:21;10.88;;;6.28;;
76475;SDS011;65308;50.078;14.854;2022-12-07T16:09:02;9.32;;;4.97;;
76475;SDS011;65308;50.078;14.854;2022-12-07T16:14:08;22.38;;;13.25;;
76475;SDS011;65308;50.078;14.854;2022-12-07T16:16:41;10.82;;;6.93;;
76475;SDS011;65308;50.078;14.854;2022-12-07T16:19:08;9.95;;;5.93;;
76475;SDS011;65308;50.078;14.854;2022-12-07T16:24:43;11.85;;;8.00;;
76475;SDS011;65308;50.078;14.854;2022-12-07T16:27:24;11.32;;;7.70;;
76475;SDS011;65308;50.078;14.854;2022-12-07T16:32:22;8.77;;;5.45;;
76475;SDS011;65308;50.078;14.854;2022-12-07T16:34:55;9.30;;;6.18;;
76475;SDS011;65308;50.078;14.854;2022-12-07T16:37:27;10.38;;;5.90;;
76475;SDS011;65308;50.078;14.854;2022-12-07T16:42:25;10.45;;;6.10;;
76475;SDS011;65308;50.078;14.854;2022-12-07T16:45:18;9.80;;;6.20;;
76475;SDS011;65308;50.078;14.854;2022-12-07T16:47:44;8.23;;;4.90;;
76475;SDS011;65308;50.078;14.854;2022-12-07T16:50:11;9.75;;;5.65;;
76475;SDS011;65308;50.078;14.854;2022-12-07T16:52:38;12.75;;;7.53;;